createdAt,value
2023-02-09T00:01:27.806Z,71.43
2023-02-09T00:03:56.084Z,71.83
2023-02-09T00:06:26.329Z,72.11
2023-02-09T00:08:54.910Z,71.16
2023-02-09T00:11:46.489Z,71.29
2023-02-09T00:14:15.227Z,71.56
2023-02-09T00:16:43.507Z,71.27
2023-02-09T00:19:11.664Z,71.16
2023-02-09T00:21:39.973Z,71.77
2023-02-09T00:24:10.777Z,71.44
2023-02-09T00:26:40.518Z,71.67
2023-02-09T00:29:09.192Z,72.19
2023-02-09T00:31:37.881Z,72.36
2023-02-09T00:34:06.245Z,72.20
2023-02-09T00:36:34.851Z,72.28
2023-02-09T00:39:02.972Z,71.43
2023-02-09T00:41:48.228Z,71.53
2023-02-09T00:44:17.730Z,71.76
2023-02-09T00:46:45.756Z,71.75
2023-02-09T00:49:14.333Z,71.60
2023-02-09T00:51:42.506Z,71.46
2023-02-09T00:54:10.834Z,71.51
2023-02-09T00:56:39.668Z,71.48
2023-02-09T00:59:07.667Z,71.88
2023-02-09T01:01:37.841Z,71.22
2023-02-09T01:04:06.280Z,71.79
2023-02-09T01:06:34.401Z,71.44
2023-02-09T01:09:02.684Z,71.98
2023-02-09T01:11:30.674Z,71.51
2023-02-09T01:14:01.164Z,72.14
2023-02-09T01:16:31.638Z,72.14
2023-02-09T01:19:03.879Z,71.73
2023-02-09T01:21:32.795Z,72.39
2023-02-09T01:24:00.826Z,71.82
2023-02-09T01:26:28.984Z,71.74
2023-02-09T01:28:57.221Z,71.90
2023-02-09T01:31:27.919Z,71.45
2023-02-09T01:33:57.746Z,71.62
2023-02-09T01:36:31.038Z,71.53
2023-02-09T01:39:00.524Z,71.92
2023-02-09T01:41:28.832Z,71.80
2023-02-09T01:44:00.010Z,71.45
2023-02-09T01:46:29.676Z,72.29
2023-02-09T01:49:04.875Z,72.06
2023-02-09T01:51:37.819Z,72.42
2023-02-09T01:54:08.936Z,72.24
2023-02-09T01:56:39.909Z,72.15
2023-02-09T01:59:08.971Z,72.14
2023-02-09T02:01:39.153Z,72.37
2023-02-09T02:04:07.925Z,72.69
2023-02-09T02:06:39.180Z,72.57
2023-02-09T02:09:12.422Z,72.29
2023-02-09T02:11:43.328Z,73.15
2023-02-09T02:14:29.402Z,73.26
2023-02-09T02:17:07.800Z,72.40
2023-02-09T02:20:21.401Z,73.28
2023-02-09T02:23:01.245Z,72.91
2023-02-09T02:25:56.163Z,73.28
2023-02-09T02:28:41.458Z,73.36
2023-02-09T02:31:39.043Z,73.04
2023-02-09T02:34:13.532Z,73.23
2023-02-09T02:36:53.729Z,73.14
2023-02-09T02:39:27.364Z,73.44
2023-02-09T02:42:18.084Z,72.66
2023-02-09T02:44:54.950Z,72.96
2023-02-09T02:47:26.781Z,73.09
2023-02-09T02:49:59.297Z,73.08
2023-02-09T02:52:27.488Z,72.77
2023-02-09T02:55:06.380Z,73.04
2023-02-09T02:57:37.345Z,73.39
2023-02-09T03:00:09.885Z,72.88
2023-02-09T03:02:42.332Z,72.76
2023-02-09T03:05:11.449Z,72.77
2023-02-09T03:07:39.499Z,73.27
2023-02-09T03:10:26.795Z,72.83
2023-02-09T03:13:05.933Z,72.84
2023-02-09T03:15:42.743Z,72.91
2023-02-09T03:18:19.148Z,73.32
2023-02-09T03:20:53.188Z,74.52
2023-02-09T03:23:39.102Z,75.14
2023-02-09T03:26:14.071Z,74.04
2023-02-09T03:28:44.668Z,73.38
2023-02-09T03:31:12.802Z,73.45
2023-02-09T03:33:43.117Z,72.82
2023-02-09T03:36:15.475Z,73.40
2023-02-09T03:38:43.447Z,73.81
2023-02-09T03:41:11.723Z,73.17
2023-02-09T03:43:57.008Z,72.92
2023-02-09T03:46:25.017Z,73.22
2023-02-09T03:48:54.392Z,72.98
2023-02-09T03:51:22.322Z,72.63
2023-02-09T03:53:50.624Z,72.31
2023-02-09T03:56:18.647Z,72.77
2023-02-09T03:58:46.627Z,72.48
2023-02-09T04:01:14.658Z,72.57
2023-02-09T04:03:42.649Z,72.18
2023-02-09T04:06:12.015Z,72.47
2023-02-09T04:08:39.992Z,72.96
2023-02-09T04:11:08.084Z,72.79
2023-02-09T04:13:36.195Z,72.50
2023-02-09T04:16:04.422Z,72.54
2023-02-09T04:18:32.413Z,72.20
2023-02-09T04:21:00.375Z,72.84
2023-02-09T04:23:29.852Z,73.00
2023-02-09T04:25:57.878Z,72.74
2023-02-09T04:28:25.889Z,72.11
2023-02-09T04:30:54.976Z,72.40
2023-02-09T04:33:23.467Z,72.41
2023-02-09T04:35:51.449Z,72.32
2023-02-09T04:38:20.658Z,72.38
2023-02-09T04:40:51.135Z,72.16
2023-02-09T04:43:19.769Z,72.56
2023-02-09T04:45:48.254Z,72.52
2023-02-09T04:48:18.700Z,72.50
2023-02-09T04:50:47.064Z,72.62
2023-02-09T04:53:16.154Z,72.19
2023-02-09T04:55:46.440Z,72.69
2023-02-09T04:58:35.144Z,72.83
2023-02-09T05:01:04.254Z,72.65
2023-02-09T05:03:32.617Z,72.48
2023-02-09T05:06:03.037Z,72.17
2023-02-09T05:08:31.436Z,72.75
2023-02-09T05:10:59.872Z,72.61
2023-02-09T05:13:29.439Z,73.27
2023-02-09T05:15:57.611Z,72.94
2023-02-09T05:18:26.362Z,72.89
2023-02-09T05:20:54.361Z,72.93
2023-02-09T05:23:22.420Z,72.78
2023-02-09T05:25:50.436Z,72.68
2023-02-09T05:28:18.512Z,72.91
2023-02-09T05:30:48.930Z,72.30
2023-02-09T05:33:17.095Z,72.33
2023-02-09T05:35:45.035Z,72.41
2023-02-09T05:38:13.030Z,72.35
2023-02-09T05:40:41.027Z,72.49
2023-02-09T05:43:09.041Z,72.40
2023-02-09T05:45:37.151Z,72.40
2023-02-09T05:48:06.775Z,72.25
2023-02-09T05:50:35.709Z,72.15
2023-02-09T05:53:08.328Z,72.41
2023-02-09T05:55:36.578Z,72.30
2023-02-09T05:58:04.667Z,72.26
2023-02-09T06:00:33.007Z,72.34
2023-02-09T06:03:01.021Z,71.89
2023-02-09T06:05:30.408Z,72.34
2023-02-09T06:07:59.072Z,71.91
2023-02-09T06:10:27.099Z,72.08
2023-02-09T06:12:55.087Z,71.86
2023-02-09T06:15:23.187Z,71.67
2023-02-09T06:17:51.226Z,71.92
2023-02-09T06:20:19.442Z,72.22
2023-02-09T06:22:48.849Z,71.63
2023-02-09T06:25:16.944Z,71.68
2023-02-09T06:27:44.961Z,71.67
2023-02-09T06:30:13.948Z,71.97
2023-02-09T06:32:41.900Z,72.05
2023-02-09T06:35:09.977Z,71.80
2023-02-09T06:37:38.077Z,71.96
2023-02-09T06:40:08.079Z,71.46
2023-02-09T06:42:44.729Z,71.33
2023-02-09T06:45:14.002Z,71.81
2023-02-09T06:47:42.852Z,71.66
2023-02-09T06:50:12.120Z,71.29
2023-02-09T06:52:40.157Z,71.56
2023-02-09T06:55:10.182Z,71.39
2023-02-09T06:57:38.686Z,71.64
2023-02-09T07:00:09.057Z,70.93
2023-02-09T07:02:37.156Z,71.32
2023-02-09T07:05:05.950Z,71.20
2023-02-09T07:07:33.931Z,71.12
2023-02-09T07:10:02.226Z,70.65
2023-02-09T07:12:31.685Z,70.85
2023-02-09T07:14:59.659Z,70.97
2023-02-09T07:17:29.717Z,70.99
2023-02-09T07:19:57.837Z,70.94
2023-02-09T07:22:26.381Z,70.73
2023-02-09T07:24:54.508Z,70.60
2023-02-09T07:27:22.536Z,70.67
2023-02-09T07:29:52.002Z,70.49
2023-02-09T07:32:22.784Z,70.65
2023-02-09T07:34:50.859Z,70.32
2023-02-09T07:37:18.859Z,70.26
2023-02-09T07:39:46.876Z,70.77
2023-02-09T07:42:14.910Z,70.30
2023-02-09T07:44:51.554Z,70.24
2023-02-09T07:47:19.548Z,70.75
2023-02-09T07:49:47.605Z,70.96
2023-02-09T07:52:15.717Z,70.67
2023-02-09T07:54:43.848Z,70.12
2023-02-09T07:57:14.057Z,69.51
2023-02-09T07:59:42.076Z,68.70
2023-02-09T08:02:19.649Z,69.95
2023-02-09T08:04:47.976Z,71.64
2023-02-09T08:07:16.076Z,72.07
2023-02-09T08:09:45.154Z,71.86
2023-02-09T08:12:13.364Z,71.40
2023-02-09T08:14:48.129Z,69.95
2023-02-09T08:17:21.619Z,70.14
2023-02-09T08:19:53.583Z,69.83
2023-02-09T08:22:23.369Z,69.72
2023-02-09T08:24:51.499Z,69.16
2023-02-09T08:27:19.498Z,69.49
2023-02-09T08:29:49.050Z,69.40
2023-02-09T08:32:18.668Z,69.39
2023-02-09T08:34:46.705Z,68.42
2023-02-09T08:37:14.690Z,68.61
2023-02-09T08:39:42.687Z,67.55
2023-02-09T08:42:10.633Z,68.28
2023-02-09T08:44:38.644Z,70.71
2023-02-09T08:47:06.868Z,71.73
2023-02-09T08:49:36.776Z,71.29
2023-02-09T08:52:05.111Z,70.00
2023-02-09T08:54:33.124Z,68.48
2023-02-09T08:57:01.304Z,67.76
2023-02-09T08:59:29.601Z,67.46
2023-02-09T09:01:57.611Z,67.14
2023-02-09T09:04:25.682Z,67.26
2023-02-09T09:06:55.111Z,67.77
2023-02-09T09:09:23.215Z,67.39
2023-02-09T09:11:51.299Z,66.96
2023-02-09T09:14:19.282Z,67.24
2023-02-09T09:16:47.305Z,67.18
2023-02-09T09:19:15.304Z,67.92
2023-02-09T09:21:43.247Z,67.17
2023-02-09T09:24:12.597Z,67.40
2023-02-09T09:26:40.567Z,66.96
2023-02-09T09:29:08.788Z,67.23
2023-02-09T09:31:38.035Z,66.00
2023-02-09T09:34:06.375Z,65.96
2023-02-09T09:36:34.444Z,66.59
2023-02-09T09:39:02.736Z,67.13
2023-02-09T09:41:35.964Z,67.01
2023-02-09T09:44:05.338Z,66.74
2023-02-09T09:46:40.068Z,66.54
2023-02-09T09:49:13.758Z,67.33
2023-02-09T09:51:45.981Z,67.05
2023-02-09T09:54:17.447Z,66.86
2023-02-09T09:56:47.225Z,66.59
2023-02-09T09:59:19.200Z,65.90
2023-02-09T10:01:48.503Z,66.37
2023-02-09T10:04:17.224Z,65.93
2023-02-09T10:06:47.555Z,65.83
2023-02-09T10:09:26.761Z,66.38
2023-02-09T10:12:15.365Z,65.27
2023-02-09T10:14:43.477Z,65.61
2023-02-09T10:17:11.862Z,65.59
2023-02-09T10:19:40.019Z,66.27
2023-02-09T10:22:12.721Z,65.90
2023-02-09T10:24:42.029Z,66.21
2023-02-09T10:27:16.245Z,65.22
2023-02-09T10:29:44.230Z,65.33
2023-02-09T10:32:18.094Z,64.60
2023-02-09T10:34:48.692Z,65.08
2023-02-09T10:37:23.627Z,63.71
2023-02-09T10:40:07.957Z,62.90
2023-02-09T10:42:40.972Z,63.40
2023-02-09T10:45:16.165Z,64.08
2023-02-09T10:47:57.333Z,63.95
2023-02-09T10:50:25.646Z,64.53
2023-02-09T10:53:00.087Z,64.10
2023-02-09T10:55:34.504Z,64.04
2023-02-09T10:58:13.500Z,63.11
2023-02-09T11:00:50.877Z,64.06
2023-02-09T11:03:20.824Z,64.68
2023-02-09T11:05:58.361Z,64.25
2023-02-09T11:08:34.138Z,63.47
2023-02-09T11:11:06.917Z,63.12
2023-02-09T11:13:36.662Z,63.35
2023-02-09T11:16:30.575Z,61.83
2023-02-09T11:19:06.429Z,62.31
2023-02-09T11:21:52.632Z,62.51
2023-02-09T11:24:29.505Z,62.12
2023-02-09T11:27:05.265Z,61.94
2023-02-09T11:29:42.026Z,62.34
2023-02-09T11:32:18.357Z,61.96
2023-02-09T11:35:02.552Z,60.77
2023-02-09T11:37:43.638Z,61.36
2023-02-09T11:40:25.256Z,60.71
2023-02-09T11:43:02.990Z,59.72
2023-02-09T11:45:37.700Z,60.18
2023-02-09T11:48:10.394Z,59.56
2023-02-09T11:50:45.614Z,60.20
2023-02-09T11:53:23.329Z,59.75
2023-02-09T11:55:57.447Z,58.92
2023-02-09T11:58:45.815Z,58.46
2023-02-09T12:01:23.292Z,58.26
2023-02-09T12:04:00.246Z,57.50
2023-02-09T12:06:33.522Z,56.78
2023-02-09T12:09:11.513Z,55.81
2023-02-09T12:11:53.705Z,52.97
2023-02-09T12:14:32.549Z,54.71
2023-02-09T12:17:11.480Z,53.90
2023-02-09T12:19:44.723Z,53.49
2023-02-09T12:22:49.490Z,50.62
2023-02-09T12:25:22.609Z,53.01
2023-02-09T12:28:13.961Z,50.68
2023-02-09T12:31:07.953Z,49.33
2023-02-09T12:33:39.051Z,52.01
2023-02-09T12:36:26.965Z,52.07
2023-02-09T12:39:23.900Z,52.17
2023-02-09T12:42:29.909Z,52.23
2023-02-09T12:45:00.626Z,52.83
2023-02-09T12:47:58.142Z,51.76
2023-02-09T12:50:36.561Z,52.99
2023-02-09T12:53:33.600Z,52.23
2023-02-09T12:56:05.157Z,54.08
2023-02-09T12:58:41.115Z,53.71
2023-02-09T13:01:09.459Z,53.51
2023-02-09T13:03:45.235Z,52.36
2023-02-09T13:06:29.590Z,51.23
2023-02-09T13:09:00.987Z,52.35
2023-02-09T13:11:39.158Z,51.81
2023-02-09T13:14:10.453Z,52.91
2023-02-09T13:16:52.481Z,51.90
2023-02-09T13:19:56.069Z,52.23
2023-02-09T13:22:33.849Z,53.02
2023-02-09T13:25:10.498Z,52.51
2023-02-09T13:27:46.614Z,51.81
2023-02-09T13:30:25.254Z,52.06
2023-02-09T13:33:03.080Z,51.96
2023-02-09T13:35:36.310Z,51.51
2023-02-09T13:38:16.971Z,52.36
2023-02-09T13:40:49.905Z,51.74
2023-02-09T13:43:21.095Z,50.96
2023-02-09T13:45:50.501Z,51.34
2023-02-09T13:48:24.702Z,50.19
2023-02-09T13:50:53.678Z,49.99
2023-02-09T13:53:25.524Z,50.92
2023-02-09T13:55:55.220Z,51.76
2023-02-09T13:58:26.227Z,51.02
2023-02-09T14:00:56.718Z,51.22
2023-02-09T14:03:27.498Z,51.20
2023-02-09T14:05:59.222Z,50.61
2023-02-09T14:08:30.420Z,51.25
2023-02-09T14:11:03.956Z,51.12
2023-02-09T14:13:35.056Z,51.17
2023-02-09T14:16:06.848Z,51.09
2023-02-09T14:18:48.463Z,49.77
2023-02-09T14:21:29.783Z,49.84
2023-02-09T14:24:26.694Z,49.81
2023-02-09T14:26:59.335Z,50.66
2023-02-09T14:29:29.110Z,50.67
2023-02-09T14:31:59.111Z,50.00
2023-02-09T14:34:34.001Z,49.51
2023-02-09T14:37:04.941Z,49.74
2023-02-09T14:39:34.459Z,49.36
2023-02-09T14:42:17.800Z,50.13
2023-02-09T14:44:47.306Z,50.58
2023-02-09T14:47:32.829Z,48.64
2023-02-09T14:50:00.820Z,49.92
2023-02-09T14:52:32.631Z,49.55
2023-02-09T14:55:05.886Z,49.04
2023-02-09T14:57:36.258Z,48.87
2023-02-09T15:00:16.252Z,46.85
2023-02-09T15:02:44.265Z,48.20
2023-02-09T15:05:12.321Z,48.52
2023-02-09T15:07:43.169Z,48.24
2023-02-09T15:10:21.198Z,46.83
2023-02-09T15:12:49.275Z,47.60
2023-02-09T15:15:19.668Z,47.38
2023-02-09T15:17:48.067Z,47.76
2023-02-09T15:20:17.089Z,48.10
2023-02-09T15:22:45.240Z,47.25
2023-02-09T15:25:15.912Z,47.45
2023-02-09T15:27:51.190Z,47.43
2023-02-09T15:30:21.988Z,47.16
2023-02-09T15:32:50.344Z,46.95
2023-02-09T15:35:20.143Z,46.56
2023-02-09T15:37:52.447Z,46.64
2023-02-09T15:40:38.394Z,47.35
2023-02-09T15:43:26.329Z,46.32
2023-02-09T15:46:11.600Z,46.35
2023-02-09T15:48:39.590Z,46.79
2023-02-09T15:51:07.636Z,46.71
2023-02-09T15:53:35.757Z,47.87
2023-02-09T15:56:06.888Z,47.96
2023-02-09T15:58:37.438Z,48.01
2023-02-09T16:01:06.408Z,47.80
2023-02-09T16:03:34.602Z,47.63
2023-02-09T16:06:05.669Z,48.42
2023-02-09T16:08:35.561Z,48.47
2023-02-09T16:11:09.503Z,48.28
2023-02-09T16:13:37.771Z,49.16
2023-02-09T16:16:16.675Z,48.56
2023-02-09T16:18:45.237Z,50.18
2023-02-09T16:21:21.258Z,49.17
2023-02-09T16:23:49.582Z,50.20
2023-02-09T16:26:19.369Z,49.22
2023-02-09T16:28:48.297Z,49.48
2023-02-09T16:31:16.340Z,50.10
2023-02-09T16:33:45.021Z,50.66
2023-02-09T16:36:15.770Z,49.75
2023-02-09T16:38:44.031Z,50.07
2023-02-09T16:41:35.391Z,50.48
2023-02-09T16:44:15.432Z,49.73
2023-02-09T16:46:43.818Z,50.81
2023-02-09T16:49:30.959Z,50.67
2023-02-09T16:52:02.521Z,49.97
2023-02-09T16:54:34.225Z,50.13
2023-02-09T16:57:03.033Z,51.22
2023-02-09T16:59:32.414Z,51.39
2023-02-09T17:02:02.174Z,51.17
2023-02-09T17:04:30.236Z,51.90
2023-02-09T17:06:58.198Z,52.19
2023-02-09T17:09:26.273Z,52.70
2023-02-09T17:11:54.237Z,52.89
2023-02-09T17:14:22.201Z,52.98
2023-02-09T17:16:52.938Z,53.15
2023-02-09T17:19:21.078Z,53.39
2023-02-09T17:21:49.081Z,53.19
2023-02-09T17:24:18.583Z,54.00
2023-02-09T17:26:46.550Z,55.33
2023-02-09T17:29:17.765Z,55.64
2023-02-09T17:31:53.143Z,55.67
2023-02-09T17:34:27.069Z,56.18
2023-02-09T17:36:55.271Z,56.38
2023-02-09T17:39:23.212Z,56.89
2023-02-09T17:41:51.330Z,57.57
2023-02-09T17:44:39.211Z,57.74
2023-02-09T17:47:11.716Z,57.64
2023-02-09T17:49:41.147Z,58.11
2023-02-09T17:52:15.774Z,58.05
2023-02-09T17:54:43.827Z,58.25
2023-02-09T17:57:14.094Z,58.09
2023-02-09T17:59:42.274Z,58.21
2023-02-09T18:02:16.915Z,58.38
2023-02-09T18:04:46.286Z,58.67
2023-02-09T18:07:20.332Z,58.66
2023-02-09T18:09:48.621Z,58.71
2023-02-09T18:12:21.550Z,58.96
2023-02-09T18:14:49.893Z,59.10
2023-02-09T18:17:17.864Z,59.11
2023-02-09T18:19:47.282Z,59.27
2023-02-09T18:22:17.640Z,59.66
2023-02-09T18:24:45.774Z,59.78
2023-02-09T18:27:17.823Z,60.03
2023-02-09T18:29:45.946Z,59.78
2023-02-09T18:32:16.759Z,60.03
2023-02-09T18:34:44.920Z,60.23
2023-02-09T18:37:15.222Z,60.64
2023-02-09T18:39:46.571Z,61.07
2023-02-09T18:42:16.740Z,61.20
2023-02-09T18:44:44.810Z,61.35
2023-02-09T18:47:12.880Z,61.26
2023-02-09T18:49:40.889Z,61.45
2023-02-09T18:52:10.285Z,61.43
2023-02-09T18:54:40.612Z,61.28
2023-02-09T18:57:08.656Z,61.44
2023-02-09T18:59:37.054Z,61.47
2023-02-09T19:02:05.047Z,61.36
2023-02-09T19:04:33.060Z,61.58
2023-02-09T19:07:02.124Z,61.88
2023-02-09T19:09:30.273Z,62.07
2023-02-09T19:11:59.942Z,61.75
2023-02-09T19:14:40.002Z,62.26
2023-02-09T19:17:09.980Z,62.76
2023-02-09T19:19:38.815Z,62.90
2023-02-09T19:22:07.202Z,62.75
2023-02-09T19:24:35.348Z,62.31
2023-02-09T19:27:06.772Z,62.52
2023-02-09T19:29:35.284Z,62.35
2023-02-09T19:32:05.265Z,62.58
2023-02-09T19:34:35.309Z,62.50
2023-02-09T19:37:05.387Z,62.50
2023-02-09T19:39:35.128Z,62.48
2023-02-09T19:42:04.567Z,62.66
2023-02-09T19:44:33.327Z,62.79
2023-02-09T19:47:01.661Z,62.29
2023-02-09T19:49:30.060Z,62.60
2023-02-09T19:51:57.993Z,62.40
2023-02-09T19:54:25.990Z,62.39
2023-02-09T19:56:53.968Z,62.60
2023-02-09T19:59:23.365Z,62.34
2023-02-09T20:01:51.510Z,62.17
2023-02-09T20:04:19.514Z,62.31
2023-02-09T20:06:47.500Z,62.16
2023-02-09T20:09:16.545Z,61.87
2023-02-09T20:11:44.524Z,61.81
2023-02-09T20:14:12.645Z,61.94
2023-02-09T20:16:42.075Z,62.22
2023-02-09T20:19:10.190Z,62.24
2023-02-09T20:21:38.294Z,62.44
2023-02-09T20:24:09.701Z,62.49
2023-02-09T20:26:37.684Z,63.10
2023-02-09T20:29:06.779Z,63.11
2023-02-09T20:31:37.428Z,63.58
2023-02-09T20:34:10.955Z,63.24
2023-02-09T20:36:41.263Z,63.31
2023-02-09T20:39:13.443Z,63.90
2023-02-09T20:42:01.497Z,63.58
2023-02-09T20:44:47.245Z,64.13
2023-02-09T20:47:15.357Z,64.85
2023-02-09T20:49:44.838Z,64.61
2023-02-09T20:52:13.008Z,65.29
2023-02-09T20:54:41.446Z,65.39
2023-02-09T20:57:09.554Z,65.48
2023-02-09T20:59:37.611Z,65.74
2023-02-09T21:02:05.604Z,65.85
2023-02-09T21:04:33.602Z,65.74
2023-02-09T21:07:04.229Z,65.45
2023-02-09T21:09:32.270Z,65.37
2023-02-09T21:12:00.299Z,65.36
2023-02-09T21:14:41.243Z,65.51
2023-02-09T21:17:10.521Z,65.10
2023-02-09T21:19:38.514Z,64.89
2023-02-09T21:22:08.180Z,65.26
2023-02-09T21:24:37.648Z,64.46
2023-02-09T21:27:06.628Z,64.58
2023-02-09T21:29:35.125Z,64.56
2023-02-09T21:32:04.458Z,64.26
2023-02-09T21:34:33.026Z,64.26
2023-02-09T21:37:01.015Z,63.92
2023-02-09T21:39:31.532Z,63.78
2023-02-09T21:42:16.916Z,64.40
2023-02-09T21:44:44.976Z,64.15
2023-02-09T21:47:13.137Z,64.18
2023-02-09T21:49:41.137Z,64.28
2023-02-09T21:52:09.129Z,63.73
2023-02-09T21:54:38.474Z,63.79
2023-02-09T21:57:06.623Z,63.74
2023-02-09T21:59:34.817Z,63.87
2023-02-09T22:02:04.475Z,64.26
2023-02-09T22:04:32.530Z,64.73
2023-02-09T22:07:00.521Z,65.25
2023-02-09T22:09:28.948Z,65.20
2023-02-09T22:11:58.443Z,66.32
2023-02-09T22:14:26.464Z,65.99
2023-02-09T22:16:54.563Z,65.56
2023-02-09T22:19:22.820Z,65.86
2023-02-09T22:21:51.347Z,66.61
2023-02-09T22:24:19.629Z,66.49
2023-02-09T22:26:48.089Z,67.32
2023-02-09T22:29:17.881Z,67.29
2023-02-09T22:31:46.168Z,67.00
2023-02-09T22:34:14.405Z,66.80
2023-02-09T22:36:42.479Z,67.67
2023-02-09T22:39:10.637Z,67.33
2023-02-09T22:41:38.848Z,67.62
2023-02-09T22:44:08.818Z,68.15
2023-02-09T22:46:40.101Z,67.62
2023-02-09T22:49:10.581Z,67.87
2023-02-09T22:51:38.546Z,67.82
2023-02-09T22:54:07.227Z,67.88
2023-02-09T22:56:35.406Z,68.33
2023-02-09T22:59:03.375Z,68.01
2023-02-09T23:01:31.562Z,67.65
2023-02-09T23:04:01.038Z,67.96
2023-02-09T23:06:30.323Z,68.25
2023-02-09T23:09:00.220Z,68.11
2023-02-09T23:11:29.856Z,68.35
2023-02-09T23:14:14.107Z,67.92
2023-02-09T23:16:43.835Z,67.39
2023-02-09T23:19:16.513Z,67.37
2023-02-09T23:21:47.620Z,67.47
2023-02-09T23:24:17.276Z,67.40
2023-02-09T23:26:45.543Z,66.94
2023-02-09T23:29:15.646Z,66.92
2023-02-09T23:31:46.003Z,66.92
2023-02-09T23:34:18.049Z,67.21
2023-02-09T23:36:46.337Z,67.52
2023-02-09T23:39:15.711Z,66.83
2023-02-09T23:41:44.069Z,67.19
2023-02-09T23:44:12.454Z,67.56
2023-02-09T23:46:40.555Z,66.77
2023-02-09T23:49:08.635Z,67.34
2023-02-09T23:51:38.545Z,67.05
2023-02-09T23:54:08.058Z,66.25
2023-02-09T23:56:37.855Z,66.90
2023-02-09T23:59:07.297Z,66.24
